Time;durP1;ratioP1;P1;durP2;ratioP2;P2;SDS_P1;SDS_P2;PMS_P1;PMS_P2;Temp;Humidity;BMP_temperature;BMP_pressure;BME280_temperature;BME280_humidity;BME280_pressure;Samples;Min_cycle;Max_cycle;Signal;HPM_P1;HPM_P2
2021/07/24 00:00:00;;;;;;;19.13;14.63;;;18.30;99.90;;;;;;5042150;28;20791;-77
2021/07/24 00:02:46;;;;;;;13.03;11.30;;;18.20;99.90;;;;;;5042496;28;20470;-78
2021/07/24 00:05:32;;;;;;;19.67;13.60;;;18.20;99.90;;;;;;5046548;28;20452;-76
2021/07/24 00:08:17;;;;;;;20.10;13.70;;;18.20;99.90;;;;;;5041471;28;20451;-78
2021/07/24 00:11:05;;;;;;;14.47;12.10;;;18.20;99.90;;;;;;5045433;28;20463;-77
2021/07/24 00:13:51;;;;;;;14.83;11.67;;;18.30;99.90;;;;;;5042471;28;20463;-76
2021/07/24 00:16:36;;;;;;;17.83;13.27;;;18.40;99.90;;;;;;5032608;28;20459;-76
2021/07/24 00:19:22;;;;;;;17.53;12.53;;;18.30;99.90;;;;;;5032762;28;20475;-75
2021/07/24 00:22:07;;;;;;;20.43;12.27;;;18.30;99.90;;;;;;5032910;28;20502;-75
2021/07/24 00:24:54;;;;;;;15.70;12.33;;;18.30;99.90;;;;;;5024428;28;20456;-75
2021/07/24 00:27:41;;;;;;;19.67;12.33;;;18.30;99.90;;;;;;5032539;28;20518;-76
2021/07/24 00:30:26;;;;;;;14.60;11.67;;;18.20;99.90;;;;;;5031318;28;20537;-75
2021/07/24 00:33:12;;;;;;;20.20;13.33;;;18.20;99.90;;;;;;5032569;28;20465;-75
2021/07/24 00:35:58;;;;;;;17.03;12.30;;;18.20;99.90;;;;;;5032178;28;20422;-75
2021/07/24 00:38:44;;;;;;;15.83;13.20;;;18.20;99.90;;;;;;5032267;28;20638;-75
2021/07/24 00:41:35;;;;;;;16.37;12.30;;;18.30;99.90;;;;;;5023896;28;20512;-76
2021/07/24 00:44:26;;;;;;;15.00;12.37;;;18.30;99.90;;;;;;5026528;28;20864;-75
2021/07/24 00:47:15;;;;;;;19.33;13.30;;;18.20;99.90;;;;;;5024569;28;20456;-76
2021/07/24 00:50:01;;;;;;;20.00;13.50;;;18.20;99.90;;;;;;5012557;28;20452;-75
2021/07/24 00:52:48;;;;;;;15.00;11.50;;;18.20;99.90;;;;;;5025913;28;20446;-75
2021/07/24 00:55:34;;;;;;;14.50;11.43;;;18.30;99.90;;;;;;5028701;28;20498;-76
2021/07/24 00:58:24;;;;;;;19.73;12.30;;;18.20;99.90;;;;;;5030115;28;20560;-75
2021/07/24 01:01:11;;;;;;;17.93;12.50;;;18.20;99.90;;;;;;5019250;28;20444;-75
2021/07/24 01:03:57;;;;;;;18.40;12.73;;;18.30;99.90;;;;;;5032094;28;20395;-75
2021/07/24 01:06:44;;;;;;;21.60;12.37;;;18.30;99.90;;;;;;5023737;28;20457;-75
2021/07/24 01:09:31;;;;;;;16.47;12.63;;;18.40;99.90;;;;;;5022741;28;20975;-75
2021/07/24 01:12:17;;;;;;;21.13;13.20;;;18.40;99.90;;;;;;5027767;28;20479;-75
2021/07/24 01:15:03;;;;;;;14.17;12.57;;;18.40;99.90;;;;;;5031131;28;20452;-76
2021/07/24 01:17:50;;;;;;;15.13;11.33;;;18.50;99.90;;;;;;5031280;28;20457;-76
2021/07/24 01:20:36;;;;;;;19.60;12.43;;;18.50;99.90;;;;;;5031870;28;20852;-75
2021/07/24 01:23:23;;;;;;;25.37;13.50;;;18.50;99.90;;;;;;5030624;28;20451;-75
2021/07/24 01:26:08;;;;;;;23.23;12.23;;;18.40;99.90;;;;;;5025514;28;20515;-76
2021/07/24 01:28:55;;;;;;;17.00;13.50;;;18.40;99.90;;;;;;5016897;28;20473;-75
2021/07/24 01:31:40;;;;;;;15.70;11.13;;;18.40;99.90;;;;;;5031066;28;20414;-76
2021/07/24 01:34:26;;;;;;;14.43;12.17;;;18.40;99.90;;;;;;5031359;28;20468;-77
2021/07/24 01:37:11;;;;;;;16.30;12.67;;;18.30;99.90;;;;;;5030352;28;20977;-76
2021/07/24 01:39:58;;;;;;;15.20;12.00;;;18.30;99.90;;;;;;5040744;28;20426;-78
2021/07/24 01:42:44;;;;;;;20.40;12.60;;;18.30;99.90;;;;;;5030714;28;20502;-76
2021/07/24 01:45:29;;;;;;;21.40;12.50;;;18.30;99.90;;;;;;5030575;28;20511;-75
2021/07/24 01:48:17;;;;;;;16.23;12.10;;;18.30;99.90;;;;;;5031292;28;20500;-79
2021/07/24 01:54:18;;;;;;;15.40;12.20;;;18.20;99.90;;;;;;5030352;28;20515;-75
2021/07/24 01:57:09;;;;;;;16.03;12.90;;;18.10;99.90;;;;;;5030671;28;21066;-76
2021/07/24 01:59:59;;;;;;;15.07;12.67;;;17.90;99.90;;;;;;5030683;28;20477;-77
2021/07/24 02:02:50;;;;;;;20.03;11.90;;;18.00;99.90;;;;;;5030146;28;20432;-76
2021/07/24 02:05:40;;;;;;;18.77;11.70;;;17.80;99.90;;;;;;5030592;28;20595;-78
2021/07/24 02:08:28;;;;;;;14.97;12.30;;;17.90;99.90;;;;;;5028754;28;20458;-76
2021/07/24 02:11:14;;;;;;;19.30;12.33;;;18.00;99.90;;;;;;5034485;28;20583;-78
2021/07/24 02:14:01;;;;;;;14.80;12.30;;;17.90;99.90;;;;;;5030723;28;20464;-77
2021/07/24 02:16:47;;;;;;;15.63;12.20;;;17.90;99.90;;;;;;5031135;28;20892;-75
2021/07/24 02:19:34;;;;;;;16.80;13.50;;;18.00;99.90;;;;;;5029766;28;20470;-75
2021/07/24 02:22:20;;;;;;;14.13;11.97;;;18.00;99.90;;;;;;5030554;28;20821;-76
2021/07/24 02:25:07;;;;;;;17.87;12.70;;;18.00;99.90;;;;;;5030249;28;20457;-75
2021/07/24 02:27:53;;;;;;;16.00;12.20;;;17.90;99.90;;;;;;5014890;28;20418;-76
2021/07/24 02:30:40;;;;;;;14.90;12.23;;;18.00;99.90;;;;;;5061981;22;20449;-69
2021/07/24 02:33:25;;;;;;;20.00;12.90;;;17.90;99.90;;;;;;5036410;28;20465;-71
2021/07/24 02:36:11;;;;;;;19.47;12.40;;;17.80;99.90;;;;;;5036237;28;20821;-70
2021/07/24 02:38:57;;;;;;;20.43;13.53;;;17.90;99.90;;;;;;5036322;28;20447;-69
2021/07/24 02:41:42;;;;;;;19.53;13.37;;;17.90;99.90;;;;;;5005073;28;20423;-70
2021/07/24 02:44:28;;;;;;;15.90;12.80;;;17.80;99.90;;;;;;5024464;28;20387;-67
2021/07/24 02:47:15;;;;;;;16.63;13.63;;;17.70;99.90;;;;;;5030620;28;20562;-70
2021/07/24 02:50:01;;;;;;;15.47;11.30;;;17.80;99.90;;;;;;5017477;28;20966;-70
2021/07/24 02:52:46;;;;;;;14.10;12.60;;;17.70;99.90;;;;;;5010525;28;20477;-70
2021/07/24 02:55:32;;;;;;;17.60;12.80;;;17.70;99.90;;;;;;5014776;28;20448;-70
2021/07/24 02:58:17;;;;;;;16.83;12.00;;;17.60;99.90;;;;;;5012919;28;20962;-70
2021/07/24 03:01:07;;;;;;;16.60;13.30;;;17.60;99.90;;;;;;5008788;28;20464;-70
2021/07/24 03:03:54;;;;;;;16.37;12.50;;;17.60;99.90;;;;;;5017708;28;20476;-70
2021/07/24 03:06:40;;;;;;;17.20;11.87;;;17.60;99.90;;;;;;5015027;28;20988;-70
2021/07/24 03:09:25;;;;;;;17.07;11.93;;;17.60;99.90;;;;;;5020683;28;20474;-70
2021/07/24 03:12:11;;;;;;;18.40;13.33;;;17.50;99.90;;;;;;5012945;28;20455;-70
2021/07/24 03:14:57;;;;;;;17.23;12.57;;;17.60;99.90;;;;;;5013426;28;20904;-70
2021/07/24 03:17:43;;;;;;;23.10;14.27;;;17.70;99.90;;;;;;5024502;28;20412;-71
2021/07/24 03:20:30;;;;;;;15.57;12.10;;;17.60;99.90;;;;;;5024565;28;20956;-70
2021/07/24 03:23:16;;;;;;;15.67;12.23;;;17.70;99.90;;;;;;5012748;28;20442;-69
2021/07/24 03:26:01;;;;;;;20.00;13.57;;;17.80;99.90;;;;;;5017199;28;20946;-70
2021/07/24 03:28:47;;;;;;;19.50;12.93;;;17.70;99.90;;;;;;5006347;28;20445;-70
2021/07/24 03:31:33;;;;;;;19.70;13.07;;;17.80;99.90;;;;;;5024269;28;20548;-70
2021/07/24 03:34:18;;;;;;;16.03;12.80;;;17.70;99.90;;;;;;5013837;28;20536;-71
2021/07/24 03:37:06;;;;;;;16.23;13.23;;;17.70;99.90;;;;;;5018750;28;20979;-70
2021/07/24 03:39:52;;;;;;;14.63;13.10;;;17.70;99.90;;;;;;5019232;28;21018;-70
2021/07/24 03:42:38;;;;;;;21.93;13.20;;;17.70;99.90;;;;;;5020678;28;20559;-70
2021/07/24 03:45:23;;;;;;;18.27;12.27;;;17.60;99.90;;;;;;5024683;28;20428;-70
2021/07/24 03:48:09;;;;;;;21.60;12.87;;;17.50;99.90;;;;;;5021098;28;20543;-70
2021/07/24 03:50:54;;;;;;;18.30;11.97;;;17.60;99.90;;;;;;5009268;28;20472;-70
2021/07/24 03:53:42;;;;;;;15.13;12.13;;;17.60;99.90;;;;;;5013474;28;20442;-70
2021/07/24 03:56:28;;;;;;;21.50;12.17;;;17.50;99.90;;;;;;5011825;28;20500;-71
2021/07/24 03:59:14;;;;;;;21.57;12.10;;;17.50;99.90;;;;;;5009610;28;20421;-70
2021/07/24 04:01:59;;;;;;;16.47;13.00;;;17.60;99.90;;;;;;5018519;28;20494;-69
2021/07/24 04:04:47;;;;;;;17.77;13.00;;;17.60;99.90;;;;;;5014388;28;20972;-69
2021/07/24 04:07:34;;;;;;;16.03;12.87;;;17.60;99.90;;;;;;5018267;28;20504;-69
2021/07/24 04:10:21;;;;;;;16.70;13.43;;;17.60;99.90;;;;;;5023071;28;20456;-69
2021/07/24 04:13:07;;;;;;;20.20;14.40;;;17.80;99.90;;;;;;5008934;28;20948;-69
2021/07/24 04:15:53;;;;;;;16.23;12.60;;;17.80;99.90;;;;;;5014096;28;20502;-69
2021/07/24 04:18:39;;;;;;;19.37;13.10;;;17.90;99.90;;;;;;5030138;28;20450;-69
2021/07/24 04:21:24;;;;;;;16.47;12.47;;;18.00;99.90;;;;;;5020796;28;20481;-69
2021/07/24 04:24:10;;;;;;;21.10;14.07;;;18.10;99.90;;;;;;5017786;28;20456;-70
2021/07/24 04:26:57;;;;;;;14.90;12.67;;;18.30;99.90;;;;;;5016135;28;20456;-70
2021/07/24 04:29:43;;;;;;;16.53;12.43;;;18.40;99.90;;;;;;5011116;28;20580;-69
2021/07/24 04:32:28;;;;;;;22.70;13.00;;;18.50;99.90;;;;;;5018761;28;21082;-69
2021/07/24 04:35:14;;;;;;;15.67;13.03;;;18.60;99.90;;;;;;5018005;28;20622;-69
2021/07/24 04:37:59;;;;;;;14.90;12.70;;;18.70;99.90;;;;;;4995373;28;20796;-70
2021/07/24 04:40:45;;;;;;;20.53;13.67;;;18.80;99.90;;;;;;5008231;28;20468;-69
2021/07/24 04:43:33;;;;;;;19.23;14.93;;;18.80;99.90;;;;;;5010019;28;20424;-69
2021/07/24 04:46:18;;;;;;;18.80;14.20;;;18.90;99.90;;;;;;5024844;28;20419;-70
2021/07/24 04:49:04;;;;;;;15.50;13.03;;;18.90;99.90;;;;;;5017325;28;20452;-69
2021/07/24 04:51:50;;;;;;;16.80;13.13;;;19.00;99.90;;;;;;5007859;28;20446;-69
2021/07/24 04:54:35;;;;;;;16.30;12.80;;;19.10;99.90;;;;;;5009909;28;20485;-69
2021/07/24 04:57:21;;;;;;;17.13;12.67;;;19.20;99.90;;;;;;5019120;28;20543;-70
2021/07/24 05:00:11;;;;;;;14.13;12.63;;;19.20;99.90;;;;;;5013125;28;20480;-70
2021/07/24 05:02:57;;;;;;;16.03;12.37;;;19.20;99.90;;;;;;5014392;28;20854;-70
2021/07/24 05:05:44;;;;;;;14.73;12.83;;;19.30;99.90;;;;;;5007350;28;20446;-69
2021/07/24 05:08:29;;;;;;;13.70;12.27;;;19.40;99.90;;;;;;5018995;28;20959;-70
2021/07/24 05:11:15;;;;;;;15.63;12.47;;;19.50;99.90;;;;;;5006598;28;21004;-70
2021/07/24 05:14:01;;;;;;;16.93;14.23;;;19.40;99.90;;;;;;5006350;28;20573;-69
2021/07/24 05:16:48;;;;;;;15.23;13.07;;;19.50;99.90;;;;;;5016265;28;20500;-69
2021/07/24 05:19:37;;;;;;;16.23;13.00;;;19.50;99.90;;;;;;5021120;28;20466;-69
2021/07/24 05:22:22;;;;;;;19.07;13.17;;;19.50;99.90;;;;;;5019068;28;20970;-69
2021/07/24 05:25:09;;;;;;;18.80;13.83;;;19.50;99.90;;;;;;5011883;28;20489;-70
2021/07/24 05:27:55;;;;;;;14.67;13.10;;;19.60;99.90;;;;;;5011020;28;20448;-69
2021/07/24 05:30:40;;;;;;;18.43;14.37;;;19.60;99.90;;;;;;5017986;28;20588;-70
2021/07/24 05:33:28;;;;;;;16.77;12.43;;;19.70;99.90;;;;;;5018783;28;20972;-69
2021/07/24 05:36:13;;;;;;;17.70;14.00;;;19.70;99.90;;;;;;5013494;28;20509;-70
2021/07/24 05:38:59;;;;;;;13.90;12.40;;;19.70;99.90;;;;;;5016101;28;20427;-69
2021/07/24 05:41:45;;;;;;;15.90;13.50;;;19.70;99.90;;;;;;5009309;28;20531;-69
2021/07/24 05:44:31;;;;;;;18.50;14.50;;;19.70;99.90;;;;;;5015586;28;20517;-69
2021/07/24 05:47:17;;;;;;;16.83;12.77;;;19.70;99.90;;;;;;5013801;28;20465;-70
2021/07/24 05:50:05;;;;;;;30.03;14.67;;;19.80;99.90;;;;;;5022422;28;20615;-69
2021/07/24 05:52:50;;;;;;;16.73;13.03;;;19.80;99.90;;;;;;5009433;28;20803;-69
2021/07/24 05:55:37;;;;;;;16.03;12.73;;;19.80;99.90;;;;;;5017146;28;20496;-69
2021/07/24 05:58:23;;;;;;;16.70;13.53;;;19.70;99.90;;;;;;5018863;28;20474;-69
2021/07/24 06:01:10;;;;;;;19.47;13.17;;;19.70;99.90;;;;;;5011341;28;20672;-69
2021/07/24 06:03:56;;;;;;;17.30;12.57;;;19.80;99.90;;;;;;5021896;28;20432;-69
2021/07/24 06:06:43;;;;;;;16.40;13.43;;;19.70;99.90;;;;;;5028089;28;20437;-69
2021/07/24 06:09:29;;;;;;;20.63;14.00;;;19.80;99.90;;;;;;5016109;28;20460;-70
2021/07/24 06:12:15;;;;;;;16.27;13.60;;;20.00;99.90;;;;;;5024682;28;20786;-70
2021/07/24 06:15:01;;;;;;;17.23;13.40;;;20.00;99.90;;;;;;5010399;28;20481;-69
2021/07/24 06:17:47;;;;;;;16.10;13.40;;;20.10;99.90;;;;;;5015654;28;20506;-69
2021/07/24 06:20:36;;;;;;;23.70;13.83;;;20.20;99.90;;;;;;5023022;28;20804;-69
2021/07/24 06:23:24;;;;;;;22.03;15.57;;;20.40;99.90;;;;;;5015084;28;20460;-69
2021/07/24 06:26:09;;;;;;;22.07;14.20;;;20.50;99.90;;;;;;5016935;28;20462;-70
2021/07/24 06:28:55;;;;;;;21.80;13.70;;;20.60;99.90;;;;;;5009187;28;20965;-70
2021/07/24 06:31:41;;;;;;;14.80;12.90;;;20.60;99.90;;;;;;5015653;28;20585;-70
2021/07/24 06:34:27;;;;;;;15.20;13.30;;;20.80;99.90;;;;;;5016792;28;21151;-70
2021/07/24 06:37:12;;;;;;;15.80;14.10;;;20.90;99.90;;;;;;5022309;28;20453;-69
2021/07/24 06:39:59;;;;;;;20.73;15.83;;;21.10;99.90;;;;;;5015581;28;20548;-70
2021/07/24 06:42:45;;;;;;;20.87;13.97;;;21.30;99.90;;;;;;5010596;28;20436;-70
2021/07/24 06:45:31;;;;;;;15.40;13.80;;;21.50;99.90;;;;;;5021525;28;21008;-70
2021/07/24 06:48:16;;;;;;;15.70;13.40;;;21.60;99.90;;;;;;5020413;28;20529;-70
2021/07/24 06:51:02;;;;;;;16.43;13.53;;;21.70;99.90;;;;;;5015251;28;20436;-70
2021/07/24 06:53:47;;;;;;;14.90;12.80;;;21.80;99.90;;;;;;5008524;28;20562;-70
2021/07/24 06:56:34;;;;;;;18.30;14.20;;;21.90;99.90;;;;;;5019412;28;20461;-69
2021/07/24 06:59:20;;;;;;;16.10;13.97;;;21.90;99.90;;;;;;5020656;28;20414;-69
2021/07/24 07:02:06;;;;;;;15.83;13.27;;;22.00;99.90;;;;;;5015426;28;20447;-70
2021/07/24 07:04:52;;;;;;;14.83;12.60;;;22.10;99.90;;;;;;5009573;28;20417;-70
2021/07/24 07:07:38;;;;;;;16.77;11.20;;;22.20;99.90;;;;;;5019975;28;20524;-70
2021/07/24 07:10:23;;;;;;;14.17;9.93;;;22.20;99.90;;;;;;5019259;28;20821;-70
2021/07/24 07:13:10;;;;;;;11.10;9.87;;;22.20;99.90;;;;;;5029665;28;20433;-70
2021/07/24 07:15:56;;;;;;;12.63;10.50;;;22.30;99.90;;;;;;5016043;28;20486;-70
2021/07/24 07:18:42;;;;;;;12.37;10.17;;;22.40;99.90;;;;;;5013216;28;20826;-70
2021/07/24 07:21:28;;;;;;;13.93;9.93;;;22.40;99.90;;;;;;5016703;28;20541;-70
2021/07/24 07:24:14;;;;;;;17.10;10.93;;;22.50;99.90;;;;;;5019150;28;20442;-70
2021/07/24 07:27:00;;;;;;;22.13;10.30;;;22.50;99.90;;;;;;5009542;28;20820;-70
2021/07/24 07:29:47;;;;;;;13.10;9.87;;;22.50;99.90;;;;;;5018785;28;20590;-69
2021/07/24 07:32:32;;;;;;;17.33;11.10;;;22.50;99.90;;;;;;5024292;28;20423;-69
2021/07/24 07:35:18;;;;;;;15.77;11.07;;;22.50;99.90;;;;;;5012713;28;20991;-69
2021/07/24 07:38:04;;;;;;;31.97;11.33;;;22.50;99.90;;;;;;5020594;28;20520;-70
2021/07/24 07:40:50;;;;;;;14.00;10.47;;;22.50;99.90;;;;;;5016606;28;20916;-70
2021/07/24 07:43:35;;;;;;;13.13;10.60;;;22.40;99.90;;;;;;5018507;28;20605;-70
2021/07/24 07:46:22;;;;;;;18.73;11.40;;;22.50;99.90;;;;;;5021489;28;20455;-69
2021/07/24 07:49:08;;;;;;;18.83;11.10;;;22.50;99.90;;;;;;5025068;28;20423;-70
2021/07/24 07:51:54;;;;;;;15.10;11.80;;;22.50;99.90;;;;;;5014680;28;21050;-70
2021/07/24 07:54:40;;;;;;;17.40;11.57;;;22.50;99.90;;;;;;5013455;28;20475;-70
2021/07/24 07:57:26;;;;;;;15.47;11.33;;;22.40;99.90;;;;;;5014064;28;20428;-70
2021/07/24 08:00:12;;;;;;;13.70;12.00;;;22.40;99.90;;;;;;5016280;28;20475;-69
2021/07/24 08:03:00;;;;;;;17.60;12.60;;;22.40;99.90;;;;;;5008646;28;21011;-69
2021/07/24 08:05:46;;;;;;;12.50;11.13;;;22.40;99.90;;;;;;5015627;28;20568;-70
2021/07/24 08:08:31;;;;;;;16.03;11.53;;;22.30;99.90;;;;;;5012747;28;20451;-69
2021/07/24 08:11:17;;;;;;;18.43;11.93;;;22.30;99.90;;;;;;5011799;28;20899;-70
2021/07/24 08:14:03;;;;;;;15.87;11.80;;;22.30;99.90;;;;;;5012187;28;20455;-70
2021/07/24 08:16:49;;;;;;;21.57;11.80;;;22.30;99.90;;;;;;5011024;28;20470;-69
2021/07/24 08:19:37;;;;;;;22.23;13.27;;;22.10;99.90;;;;;;5021389;28;20994;-70
2021/07/24 08:22:22;;;;;;;13.97;12.30;;;22.00;99.90;;;;;;5015292;28;20525;-71
2021/07/24 08:25:09;;;;;;;15.37;12.50;;;22.00;99.90;;;;;;5017378;28;20453;-69
2021/07/24 08:27:54;;;;;;;14.80;11.80;;;22.10;99.90;;;;;;5018105;28;20469;-71
2021/07/24 08:30:40;;;;;;;13.50;11.37;;;22.00;99.90;;;;;;5079576;22;20491;-78
2021/07/24 08:33:26;;;;;;;14.23;12.73;;;22.10;99.90;;;;;;5062626;28;20556;-78
2021/07/24 08:36:13;;;;;;;17.60;13.13;;;22.10;99.90;;;;;;5063922;28;20479;-77
2021/07/24 08:38:59;;;;;;;20.27;14.13;;;22.10;99.90;;;;;;5051086;28;20522;-77
2021/07/24 08:41:44;;;;;;;16.90;13.87;;;22.30;99.90;;;;;;5043194;28;20470;-77
2021/07/24 08:44:30;;;;;;;21.23;13.27;;;22.40;99.90;;;;;;5056460;28;20430;-77
2021/07/24 08:47:15;;;;;;;23.73;15.40;;;22.40;99.90;;;;;;5056423;28;20457;-77
2021/07/24 08:50:02;;;;;;;18.00;14.37;;;22.50;99.90;;;;;;5062592;28;20528;-77
2021/07/24 08:52:54;;;;;;;14.13;12.63;;;22.60;99.90;;;;;;5051289;28;20986;-77
2021/07/24 08:55:41;;;;;;;12.70;11.40;;;22.70;99.90;;;;;;5061554;28;20464;-77
2021/07/24 08:58:28;;;;;;;17.20;12.47;;;22.80;99.90;;;;;;5052352;28;20500;-77
2021/07/24 09:01:19;;;;;;;21.03;12.00;;;23.00;99.90;;;;;;5053935;28;20432;-77
2021/07/24 09:04:06;;;;;;;16.73;11.90;;;23.10;99.90;;;;;;5059743;28;20812;-77
2021/07/24 09:06:58;;;;;;;14.00;11.60;;;23.30;99.90;;;;;;5060351;28;20432;-77
2021/07/24 09:09:47;;;;;;;17.30;11.00;;;23.40;99.90;;;;;;5050853;28;20806;-77
2021/07/24 09:12:34;;;;;;;16.70;11.63;;;23.40;99.90;;;;;;5047445;28;20445;-77
2021/07/24 09:15:20;;;;;;;13.77;10.37;;;23.50;99.90;;;;;;5059760;28;20464;-77
2021/07/24 09:18:07;;;;;;;15.63;11.60;;;23.50;99.90;;;;;;5049951;28;20831;-77
2021/07/24 09:20:53;;;;;;;15.20;11.00;;;23.40;99.90;;;;;;5046876;28;20539;-77
2021/07/24 09:23:39;;;;;;;17.77;11.70;;;23.30;99.90;;;;;;5059623;28;20958;-77
2021/07/24 09:26:36;;;;;;;14.27;11.93;;;23.30;99.90;;;;;;5058132;28;20945;-77
2021/07/24 09:29:22;;;;;;;13.73;10.87;;;23.10;99.90;;;;;;5048311;28;20403;-77
2021/07/24 09:32:10;;;;;;;16.17;11.60;;;23.10;99.90;;;;;;5052281;28;20483;-75
2021/07/24 09:34:55;;;;;;;13.70;11.50;;;22.90;99.90;;;;;;5053584;28;20630;-75
2021/07/24 09:37:41;;;;;;;16.00;11.57;;;22.90;99.90;;;;;;5050200;28;20530;-77
2021/07/24 09:40:26;;;;;;;13.60;11.80;;;23.10;99.90;;;;;;5048101;28;20474;-77
2021/07/24 09:43:34;;;;;;;14.93;11.43;;;23.20;99.90;;;;;;5058941;28;20489;-77
2021/07/24 09:46:22;;;;;;;15.90;12.30;;;23.40;99.90;;;;;;5071036;28;20555;-77
2021/07/24 09:49:13;;;;;;;13.03;10.87;;;23.60;99.90;;;;;;5071812;28;20787;-77
2021/07/24 09:52:11;;;;;;;15.80;12.33;;;23.60;99.90;;;;;;5071238;28;20555;-77
2021/07/24 09:55:17;;;;;;;14.67;12.53;;;23.70;99.90;;;;;;5030805;28;20473;-77
2021/07/24 09:58:04;;;;;;;14.37;12.83;;;23.70;99.90;;;;;;5031194;28;20423;-77
2021/07/24 10:01:03;;;;;;;17.07;11.97;;;23.80;99.90;;;;;;5031310;28;20473;-77
2021/07/24 10:03:50;;;;;;;15.73;12.30;;;23.80;99.90;;;;;;5031220;28;20466;-77
2021/07/24 10:06:37;;;;;;;20.83;12.70;;;23.90;99.90;;;;;;5031075;28;20430;-77
2021/07/24 10:09:27;;;;;;;14.73;12.07;;;24.00;99.90;;;;;;5036657;28;20434;-77
2021/07/24 10:12:13;;;;;;;13.53;10.40;;;24.00;99.90;;;;;;5062655;28;20445;-77
2021/07/24 10:15:00;;;;;;;14.13;11.80;;;24.20;99.90;;;;;;5070342;28;20463;-77
2021/07/24 10:17:48;;;;;;;20.23;12.97;;;24.40;99.90;;;;;;5070969;28;20447;-77
2021/07/24 10:20:39;;;;;;;14.77;12.23;;;24.50;99.90;;;;;;5071004;28;20460;-77
2021/07/24 10:23:24;;;;;;;15.23;11.60;;;24.70;99.90;;;;;;5053467;28;20440;-77
2021/07/24 10:26:13;;;;;;;15.77;11.90;;;25.00;99.90;;;;;;5054804;28;20965;-77
2021/07/24 10:29:04;;;;;;;20.83;14.03;;;25.20;99.90;;;;;;5051134;28;20853;-77
2021/07/24 10:31:54;;;;;;;17.27;10.63;;;25.40;99.90;;;;;;5050582;28;20550;-76
2021/07/24 10:34:49;;;;;;;15.37;10.13;;;25.50;99.90;;;;;;5053224;28;20386;-76
2021/07/24 10:37:38;;;;;;;12.83;9.23;;;25.50;96.90;;;;;;5070872;28;20441;-76
2021/07/24 10:40:34;;;;;;;9.77;8.77;;;25.40;93.80;;;;;;5065340;28;20519;-76
2021/07/24 10:43:52;;;;;;;13.17;9.40;;;25.40;93.80;;;;;;5068170;28;20425;-76
2021/07/24 10:47:18;;;;;;;12.80;10.97;;;25.40;94.40;;;;;;5067997;28;20433;-76
2021/07/24 10:50:06;;;;;;;19.63;9.97;;;25.50;96.40;;;;;;5070492;28;20587;-76
2021/07/24 10:53:09;;;;;;;16.67;10.50;;;25.50;95.30;;;;;;5059492;28;20430;-76
2021/07/24 10:55:56;;;;;;;14.33;10.40;;;25.60;95.70;;;;;;5053993;28;20550;-76
2021/07/24 10:59:20;;;;;;;11.07;9.73;;;25.60;94.30;;;;;;5054347;28;20430;-76
2021/07/24 11:02:06;;;;;;;11.53;9.67;;;25.60;93.30;;;;;;5054020;28;20938;-76
2021/07/24 11:04:52;;;;;;;19.90;9.90;;;25.60;92.90;;;;;;5053967;28;20481;-76
2021/07/24 11:07:47;;;;;;;13.37;9.30;;;25.70;92.00;;;;;;5054094;28;20428;-76
2021/07/24 11:10:32;;;;;;;14.93;9.13;;;25.60;91.20;;;;;;5062200;28;21043;-76
2021/07/24 11:13:48;;;;;;;15.10;9.53;;;25.80;94.40;;;;;;5070979;28;20779;-76
2021/07/24 11:17:12;;;;;;;11.17;9.57;;;26.10;94.90;;;;;;5073221;28;20600;-77
2021/07/24 11:20:33;;;;;;;13.83;10.10;;;26.30;91.30;;;;;;5073887;28;20937;-76
2021/07/24 11:23:21;;;;;;;11.00;9.67;;;26.50;91.80;;;;;;5073849;28;20417;-76
2021/07/24 11:26:07;;;;;;;14.27;10.23;;;26.70;90.80;;;;;;5073235;28;20506;-76
2021/07/24 11:28:52;;;;;;;11.13;9.63;;;26.60;85.90;;;;;;5073915;28;20471;-76
2021/07/24 11:31:39;;;;;;;16.03;10.40;;;26.80;88.60;;;;;;5073441;28;20832;-76
2021/07/24 11:34:28;;;;;;;13.70;9.70;;;26.80;87.00;;;;;;5072664;28;20784;-76
2021/07/24 11:37:14;;;;;;;14.60;8.20;;;27.10;88.30;;;;;;5073332;28;20934;-76
2021/07/24 11:40:01;;;;;;;14.00;7.97;;;27.30;82.20;;;;;;5069667;28;20458;-76
2021/07/24 11:42:57;;;;;;;10.27;8.13;;;27.50;87.60;;;;;;5058900;28;20445;-76
2021/07/24 11:45:43;;;;;;;11.50;8.30;;;27.60;76.20;;;;;;5073187;28;20414;-76
2021/07/24 11:48:29;;;;;;;11.20;7.83;;;27.60;75.50;;;;;;5073403;28;20429;-76
2021/07/24 11:51:15;;;;;;;14.07;7.80;;;27.50;71.90;;;;;;5060452;28;20457;-76
2021/07/24 11:54:00;;;;;;;9.90;7.60;;;27.10;70.30;;;;;;5053126;28;20504;-76
2021/07/24 11:56:53;;;;;;;9.17;7.67;;;27.00;72.00;;;;;;5052869;28;20559;-76
2021/07/24 11:59:41;;;;;;;16.23;8.57;;;26.80;70.10;;;;;;5053230;28;20433;-76
2021/07/24 12:02:27;;;;;;;11.53;7.80;;;26.70;73.70;;;;;;5052118;28;20574;-76
2021/07/24 12:05:26;;;;;;;10.80;8.63;;;26.80;81.80;;;;;;5052665;28;20426;-76
2021/07/24 12:08:12;;;;;;;11.93;8.33;;;26.70;80.30;;;;;;5052773;28;20421;-76
2021/07/24 12:10:58;;;;;;;9.07;7.60;;;26.50;82.10;;;;;;5051490;28;20442;-76
2021/07/24 12:13:46;;;;;;;12.30;7.40;;;26.30;82.80;;;;;;5048100;28;20449;-76
2021/07/24 12:16:41;;;;;;;10.00;6.83;;;26.10;75.50;;;;;;5052164;28;20507;-77
2021/07/24 12:19:35;;;;;;;11.10;7.93;;;25.90;75.70;;;;;;5048628;28;20465;-76
2021/07/24 12:22:22;;;;;;;12.57;7.53;;;25.70;74.60;;;;;;5048004;28;20454;-76
2021/07/24 12:25:15;;;;;;;9.67;6.90;;;25.70;75.00;;;;;;5057940;28;20861;-76
2021/07/24 12:28:01;;;;;;;12.70;8.50;;;25.60;74.70;;;;;;5048125;28;20470;-76
2021/07/24 12:30:48;;;;;;;11.13;9.33;;;25.50;76.10;;;;;;5052387;28;20424;-76
2021/07/24 12:33:44;;;;;;;11.80;8.00;;;25.60;78.00;;;;;;5049108;28;20981;-76
2021/07/24 12:36:31;;;;;;;26.30;10.93;;;25.60;80.60;;;;;;5048607;28;20466;-77
2021/07/24 12:39:18;;;;;;;9.90;8.27;;;25.70;84.90;;;;;;5060149;28;20506;-77
2021/07/24 12:42:05;;;;;;;11.60;7.77;;;25.60;84.60;;;;;;5049703;28;20446;-77
2021/07/24 12:44:57;;;;;;;16.33;8.83;;;25.70;81.10;;;;;;5045084;28;20423;-77
2021/07/24 12:47:45;;;;;;;11.50;8.07;;;25.70;84.30;;;;;;5050211;28;20451;-78
2021/07/24 12:50:30;;;;;;;10.83;7.90;;;25.70;83.50;;;;;;5053410;28;20478;-76
2021/07/24 12:53:20;;;;;;;11.00;8.90;;;25.70;83.80;;;;;;5058344;28;20461;-76
2021/07/24 12:56:06;;;;;;;11.43;7.67;;;25.90;87.20;;;;;;5058557;28;20468;-76
2021/07/24 12:58:51;;;;;;;9.27;7.10;;;25.90;81.20;;;;;;5052555;28;20465;-77
2021/07/24 13:01:44;;;;;;;12.43;7.07;;;25.90;80.50;;;;;;5049700;28;20478;-75
2021/07/24 13:04:32;;;;;;;11.00;7.27;;;26.00;75.70;;;;;;5049121;28;20457;-76
2021/07/24 13:07:17;;;;;;;9.67;7.00;;;26.10;72.60;;;;;;5051579;28;20421;-75
2021/07/24 13:10:03;;;;;;;9.63;7.17;;;26.30;72.40;;;;;;5052291;28;20467;-76
2021/07/24 13:12:49;;;;;;;8.33;6.70;;;26.60;70.60;;;;;;5058885;28;20575;-75
2021/07/24 13:15:35;;;;;;;17.57;6.90;;;26.80;67.80;;;;;;5049703;28;20458;-76
2021/07/24 13:18:21;;;;;;;13.70;7.53;;;26.90;67.80;;;;;;5047911;28;20455;-76
2021/07/24 13:21:08;;;;;;;8.93;5.83;;;26.90;68.20;;;;;;5049128;28;20456;-76
2021/07/24 13:23:57;;;;;;;8.90;6.80;;;27.00;70.20;;;;;;5044109;28;20465;-76
2021/07/24 13:29:45;;;;;;;13.70;7.60;;;26.90;69.20;;;;;;5049019;28;20513;-76
2021/07/24 13:32:31;;;;;;;8.57;6.60;;;26.70;70.00;;;;;;5063700;28;20446;-75
2021/07/24 13:35:18;;;;;;;12.10;7.00;;;26.50;74.50;;;;;;5044421;28;20423;-75
2021/07/24 13:38:05;;;;;;;9.70;5.03;;;26.40;77.30;;;;;;5049470;28;20445;-75
2021/07/24 13:40:51;;;;;;;8.57;5.30;;;26.10;76.50;;;;;;5052342;28;20440;-76
2021/07/24 13:43:37;;;;;;;7.63;4.87;;;25.90;81.10;;;;;;5049758;28;20967;-75
2021/07/24 13:46:22;;;;;;;7.97;5.00;;;25.80;82.40;;;;;;5058337;28;20600;-75
2021/07/24 13:49:08;;;;;;;8.47;5.00;;;26.20;85.90;;;;;;5047803;28;20462;-75
2021/07/24 13:51:53;;;;;;;9.63;6.97;;;26.40;84.60;;;;;;5055816;28;20445;-75
2021/07/24 13:54:41;;;;;;;6.80;4.37;;;26.60;84.10;;;;;;5046234;28;20448;-75
2021/07/24 13:57:27;;;;;;;8.63;3.97;;;26.70;80.00;;;;;;5049607;28;22140;-75
2021/07/24 14:00:13;;;;;;;6.10;4.50;;;26.30;78.50;;;;;;5043622;28;20472;-75
2021/07/24 14:02:59;;;;;;;5.80;4.00;;;26.10;80.70;;;;;;5048104;28;20821;-75
2021/07/24 14:05:44;;;;;;;5.63;3.80;;;25.90;81.10;;;;;;5052760;28;20506;-75
2021/07/24 14:08:30;;;;;;;5.43;3.90;;;25.60;83.30;;;;;;5048860;28;20491;-75
2021/07/24 14:11:18;;;;;;;8.07;4.17;;;25.60;85.20;;;;;;5044624;28;20656;-75
2021/07/24 14:14:04;;;;;;;5.20;3.43;;;25.60;84.90;;;;;;5047269;28;20554;-75
2021/07/24 14:16:50;;;;;;;7.03;4.40;;;25.70;83.40;;;;;;5043872;28;20494;-75
2021/07/24 14:19:35;;;;;;;11.93;4.30;;;25.80;84.80;;;;;;5048521;28;20469;-76